createdAt,value
2018-06-07T00:00:08.298Z,9.27
2018-06-07T00:02:37.315Z,8.80
2018-06-07T00:05:06.284Z,8.83
2018-06-07T00:07:35.282Z,8.67
2018-06-07T00:10:04.411Z,8.80
2018-06-07T00:12:33.364Z,8.80
2018-06-07T00:15:02.496Z,9.90
2018-06-07T00:17:31.516Z,9.07
2018-06-07T00:20:00.483Z,9.73
2018-06-07T00:22:29.438Z,9.67
2018-06-07T00:24:58.439Z,9.80
2018-06-07T00:27:27.444Z,9.60
2018-06-07T00:29:56.386Z,8.80
2018-06-07T00:32:25.395Z,9.27
2018-06-07T00:34:54.410Z,8.73
2018-06-07T00:37:23.375Z,8.63
2018-06-07T00:39:52.367Z,8.90
2018-06-07T00:42:21.306Z,8.87
2018-06-07T00:44:50.253Z,8.40
2018-06-07T00:47:19.338Z,9.03
2018-06-07T00:49:48.307Z,8.60
2018-06-07T00:52:17.259Z,9.20
2018-06-07T00:54:46.334Z,8.67
2018-06-07T00:57:15.510Z,9.63
2018-06-07T00:59:44.486Z,9.70
2018-06-07T01:02:13.441Z,9.77
2018-06-07T01:04:42.450Z,10.60
2018-06-07T01:07:11.450Z,10.73
2018-06-07T01:09:40.405Z,9.70
2018-06-07T01:12:09.410Z,10.27
2018-06-07T01:14:38.410Z,10.60
2018-06-07T01:17:07.332Z,10.13
2018-06-07T01:19:36.326Z,10.47
2018-06-07T01:22:05.346Z,11.57
2018-06-07T01:24:34.536Z,11.20
2018-06-07T01:27:03.474Z,11.93
2018-06-07T01:29:43.776Z,12.27
2018-06-07T01:33:27.126Z,13.07
2018-06-07T01:35:58.455Z,12.43
2018-06-07T01:38:38.771Z,11.80
2018-06-07T01:41:07.782Z,12.67
2018-06-07T01:43:36.757Z,12.53
2018-06-07T01:46:05.699Z,12.47
2018-06-07T01:48:34.666Z,12.27
2018-06-07T01:51:03.675Z,12.40
2018-06-07T01:53:32.633Z,13.03
2018-06-07T01:56:01.622Z,12.23
2018-06-07T01:58:30.578Z,13.17
2018-06-07T02:00:59.589Z,12.57
2018-06-07T02:03:28.598Z,13.03
2018-06-07T02:05:57.609Z,11.87
2018-06-07T02:08:26.574Z,12.53
2018-06-07T02:10:55.606Z,12.77
2018-06-07T02:13:24.559Z,12.40
2018-06-07T02:15:54.174Z,12.07
2018-06-07T02:18:23.504Z,11.30
2018-06-07T02:20:52.496Z,11.60
2018-06-07T02:23:21.415Z,11.87
2018-06-07T02:25:50.396Z,12.33
2018-06-07T02:28:19.367Z,13.20
2018-06-07T02:30:48.362Z,13.83
2018-06-07T02:33:17.360Z,13.87
2018-06-07T02:35:46.474Z,14.20
2018-06-07T02:38:15.491Z,13.33
2018-06-07T02:40:44.515Z,13.50
2018-06-07T02:43:13.503Z,13.23
2018-06-07T02:45:42.510Z,13.40
2018-06-07T02:48:11.555Z,13.30
2018-06-07T02:50:40.514Z,13.07
2018-06-07T02:53:09.514Z,13.73
2018-06-07T02:55:38.467Z,13.13
2018-06-07T02:58:07.435Z,13.33
2018-06-07T03:00:36.443Z,13.57
2018-06-07T03:03:05.523Z,12.90
2018-06-07T03:05:34.539Z,12.87
2018-06-07T03:08:03.490Z,12.70
2018-06-07T03:10:32.468Z,12.63
2018-06-07T03:13:01.461Z,13.27
2018-06-07T03:15:30.410Z,13.13
2018-06-07T03:17:59.405Z,13.00
2018-06-07T03:20:28.428Z,13.93
2018-06-07T03:22:57.402Z,14.40
2018-06-07T03:25:26.356Z,14.60
2018-06-07T03:27:55.299Z,14.70
2018-06-07T03:30:24.318Z,14.70
2018-06-07T03:32:53.291Z,13.57
2018-06-07T03:35:22.306Z,14.20
2018-06-07T03:37:51.270Z,14.73
2018-06-07T03:40:20.298Z,15.30
2018-06-07T03:42:49.485Z,14.43
2018-06-07T03:45:18.470Z,14.43
2018-06-07T03:47:47.450Z,13.60
2018-06-07T03:50:17.149Z,14.83
2018-06-07T03:52:46.250Z,15.67
2018-06-07T03:55:15.398Z,15.40
2018-06-07T03:57:44.576Z,14.67
2018-06-07T04:00:13.546Z,14.27
2018-06-07T04:02:42.547Z,14.13
2018-06-07T04:05:11.508Z,15.00
2018-06-07T04:07:40.473Z,14.63
2018-06-07T04:10:09.507Z,13.67
2018-06-07T04:12:38.476Z,14.60
2018-06-07T04:15:07.480Z,14.30
2018-06-07T04:17:38.515Z,14.07
2018-06-07T04:20:08.210Z,14.47
2018-06-07T04:22:37.240Z,13.97
2018-06-07T04:25:06.219Z,13.30
2018-06-07T04:27:35.210Z,15.77
2018-06-07T04:30:04.218Z,15.00
2018-06-07T04:32:33.233Z,14.37
2018-06-07T04:35:02.275Z,13.83
2018-06-07T04:37:31.260Z,14.80
2018-06-07T04:40:00.273Z,15.10
2018-06-07T04:42:29.204Z,13.07
2018-06-07T04:44:58.213Z,14.57
2018-06-07T04:47:27.199Z,15.60
2018-06-07T04:49:56.152Z,14.80
2018-06-07T04:52:25.172Z,14.30
2018-06-07T04:54:54.158Z,13.00
2018-06-07T04:57:23.130Z,14.43
2018-06-07T04:59:52.123Z,15.50
2018-06-07T05:02:21.074Z,15.40
2018-06-07T05:04:50.042Z,14.80
2018-06-07T05:07:19.040Z,14.10
2018-06-07T05:09:48.078Z,13.80
2018-06-07T05:12:17.096Z,14.60
2018-06-07T05:14:46.123Z,13.67
2018-06-07T05:17:15.110Z,12.30
2018-06-07T05:19:44.077Z,10.97
2018-06-07T05:22:13.423Z,11.40
2018-06-07T05:24:42.463Z,10.47
2018-06-07T05:27:11.515Z,10.83
2018-06-07T05:29:40.551Z,10.27
2018-06-07T05:32:09.563Z,9.77
2018-06-07T05:34:38.519Z,10.50
2018-06-07T05:37:07.479Z,10.10
2018-06-07T05:39:36.523Z,9.80
2018-06-07T05:42:05.446Z,9.67
2018-06-07T05:44:34.452Z,9.40
2018-06-07T05:47:03.463Z,10.50
2018-06-07T05:49:32.622Z,10.10
2018-06-07T05:52:01.662Z,10.43
2018-06-07T05:54:30.557Z,10.10
2018-06-07T05:56:59.594Z,9.73
2018-06-07T05:59:28.602Z,9.50
2018-06-07T06:01:57.595Z,10.10
2018-06-07T06:04:26.610Z,10.40
2018-06-07T06:06:55.666Z,9.60
2018-06-07T06:09:24.639Z,10.20
2018-06-07T06:11:53.578Z,9.87
2018-06-07T06:14:22.543Z,9.50
2018-06-07T06:16:51.562Z,9.83
2018-06-07T06:19:20.563Z,9.67
2018-06-07T06:21:49.510Z,8.70
2018-06-07T06:24:18.502Z,8.47
2018-06-07T06:26:47.488Z,9.23
2018-06-07T06:29:16.542Z,8.73
2018-06-07T06:31:45.521Z,7.63
2018-06-07T06:34:14.563Z,7.93
2018-06-07T06:36:43.494Z,7.37
2018-06-07T06:39:12.952Z,7.43
2018-06-07T06:41:41.858Z,7.20
2018-06-07T06:44:10.886Z,6.50
2018-06-07T06:46:39.959Z,6.60
2018-06-07T06:49:09.076Z,7.20
2018-06-07T06:51:38.097Z,7.50
2018-06-07T06:54:07.102Z,7.70
2018-06-07T06:56:36.096Z,8.00
2018-06-07T06:59:05.039Z,7.30
2018-06-07T07:01:34.197Z,6.40
2018-06-07T07:04:03.191Z,6.20
2018-06-07T07:06:32.139Z,6.10
2018-06-07T07:09:01.219Z,6.20
2018-06-07T07:11:30.141Z,6.27
2018-06-07T07:13:59.083Z,6.10
2018-06-07T07:16:28.083Z,6.70
2018-06-07T07:18:57.082Z,6.53
2018-06-07T07:21:26.055Z,5.97
2018-06-07T07:23:55.043Z,5.07
2018-06-07T07:26:24.024Z,5.67
2018-06-07T07:28:53.084Z,5.57
2018-06-07T07:31:21.990Z,4.77
2018-06-07T07:33:50.986Z,5.27
2018-06-07T07:36:19.962Z,4.47
2018-06-07T07:38:48.919Z,5.10
2018-06-07T07:41:17.918Z,4.77
2018-06-07T07:43:46.960Z,5.23
2018-06-07T07:46:15.895Z,4.83
2018-06-07T07:48:44.973Z,5.30
2018-06-07T07:51:13.926Z,5.20
2018-06-07T07:53:42.917Z,5.03
2018-06-07T07:56:11.851Z,5.07
2018-06-07T07:58:40.838Z,5.20
2018-06-07T08:01:10.011Z,5.17
2018-06-07T08:03:38.987Z,5.13
2018-06-07T08:06:07.931Z,4.90
2018-06-07T08:08:36.958Z,5.50
2018-06-07T08:11:05.922Z,5.07
2018-06-07T08:13:34.885Z,5.40
2018-06-07T08:16:03.870Z,5.00
2018-06-07T08:18:32.854Z,5.03
2018-06-07T08:21:01.795Z,4.77
2018-06-07T08:23:30.757Z,5.20
2018-06-07T08:25:59.698Z,5.23
2018-06-07T08:28:28.654Z,5.77
2018-06-07T08:30:57.593Z,5.67
2018-06-07T08:33:26.538Z,5.77
2018-06-07T08:35:55.523Z,5.07
2018-06-07T08:38:24.508Z,4.60
2018-06-07T08:40:53.498Z,4.80
2018-06-07T08:43:22.453Z,4.80
2018-06-07T08:45:51.398Z,4.80
2018-06-07T08:48:20.403Z,4.90
2018-06-07T08:50:49.428Z,4.53
2018-06-07T08:53:18.414Z,5.50
2018-06-07T08:55:47.458Z,5.10
2018-06-07T08:58:16.463Z,4.50
2018-06-07T09:00:45.444Z,5.93
2018-06-07T09:03:14.416Z,5.83
2018-06-07T09:05:43.374Z,6.13
2018-06-07T09:08:12.321Z,5.33
2018-06-07T09:10:41.292Z,5.37
2018-06-07T09:13:10.242Z,5.97
2018-06-07T09:15:39.326Z,5.70
2018-06-07T09:18:08.376Z,6.27
2018-06-07T09:20:37.422Z,6.10
2018-06-07T09:23:06.394Z,6.40
2018-06-07T09:25:35.452Z,6.30
2018-06-07T09:28:04.446Z,5.90
2018-06-07T09:30:33.398Z,6.40
2018-06-07T09:33:02.450Z,6.27
2018-06-07T09:35:31.450Z,6.43
2018-06-07T09:38:00.443Z,6.87
2018-06-07T09:40:29.470Z,6.80
2018-06-07T09:42:58.427Z,6.50
2018-06-07T09:45:27.426Z,6.20
2018-06-07T09:47:56.394Z,6.00
2018-06-07T09:50:25.347Z,6.47
2018-06-07T09:52:54.585Z,6.73
2018-06-07T09:55:23.586Z,6.63
2018-06-07T09:57:52.619Z,7.13
2018-06-07T10:00:27.154Z,7.37
2018-06-07T10:02:56.186Z,6.73
2018-06-07T10:05:25.158Z,7.10
2018-06-07T10:07:54.169Z,6.83
2018-06-07T10:10:23.187Z,7.13
2018-06-07T10:12:52.209Z,6.90
2018-06-07T10:15:21.434Z,7.07
2018-06-07T10:17:51.621Z,6.03
2018-06-07T10:20:20.775Z,6.77
2018-06-07T10:22:49.851Z,6.80
2018-06-07T10:25:18.861Z,6.70
2018-06-07T10:27:47.838Z,6.83
2018-06-07T10:30:16.794Z,6.60
2018-06-07T10:32:45.751Z,7.13
2018-06-07T10:35:14.732Z,6.17
2018-06-07T10:37:43.714Z,5.90
2018-06-07T10:40:12.738Z,5.90
2018-06-07T10:42:41.738Z,5.87
2018-06-07T10:45:10.715Z,5.43
2018-06-07T10:47:39.690Z,5.63
2018-06-07T10:50:08.727Z,5.80
2018-06-07T10:52:37.672Z,5.70
2018-06-07T10:55:06.667Z,5.90
2018-06-07T10:57:35.724Z,5.70
2018-06-07T11:00:04.799Z,5.60
2018-06-07T11:02:33.753Z,5.87
2018-06-07T11:05:02.719Z,5.67
2018-06-07T11:07:31.775Z,5.23
2018-06-07T11:10:00.754Z,5.40
2018-06-07T11:12:29.747Z,5.30
2018-06-07T11:14:58.750Z,5.63
2018-06-07T11:17:27.704Z,5.47
2018-06-07T11:19:56.708Z,5.40
2018-06-07T11:22:25.742Z,5.13
2018-06-07T11:24:54.699Z,5.40
2018-06-07T11:27:23.743Z,5.07
2018-06-07T11:29:52.696Z,5.50
2018-06-07T11:32:21.718Z,6.03
2018-06-07T11:34:50.766Z,5.50
2018-06-07T11:37:19.718Z,5.60
2018-06-07T11:39:48.714Z,5.10
2018-06-07T11:42:17.670Z,5.20
2018-06-07T11:44:46.663Z,4.90
2018-06-07T11:47:15.623Z,4.60
2018-06-07T11:49:44.614Z,4.80
2018-06-07T11:52:13.642Z,4.80
2018-06-07T11:54:42.656Z,4.50
2018-06-07T11:57:11.700Z,4.33
2018-06-07T11:59:40.772Z,4.60
2018-06-07T12:02:09.766Z,4.90
2018-06-07T12:04:38.782Z,4.80
2018-06-07T12:07:07.742Z,4.80
2018-06-07T12:09:42.958Z,4.80
2018-06-07T12:12:11.942Z,4.93
2018-06-07T12:14:40.898Z,4.50
2018-06-07T12:17:09.947Z,4.43
2018-06-07T12:19:38.906Z,4.40
2018-06-07T12:22:07.937Z,4.60
2018-06-07T12:24:36.990Z,4.20
2018-06-07T12:27:06.011Z,4.00
2018-06-07T12:29:34.963Z,3.87
2018-06-07T12:32:04.067Z,5.07
2018-06-07T12:34:33.019Z,4.30
2018-06-07T12:37:02.028Z,4.50
2018-06-07T12:39:31.038Z,4.27
2018-06-07T12:42:00.048Z,4.53
2018-06-07T12:44:29.082Z,4.17
2018-06-07T12:46:58.189Z,4.27
2018-06-07T12:49:27.088Z,4.67
2018-06-07T12:51:56.043Z,4.30
2018-06-07T12:54:25.116Z,4.43
2018-06-07T12:56:54.158Z,4.17
2018-06-07T12:59:23.095Z,4.30
2018-06-07T13:01:52.222Z,4.20
2018-06-07T13:04:21.218Z,4.30
2018-06-07T13:06:51.567Z,4.00
2018-06-07T13:09:21.867Z,4.37
2018-06-07T13:11:51.713Z,4.43
2018-06-07T13:14:24.567Z,3.97
2018-06-07T13:16:54.247Z,4.70
2018-06-07T13:19:23.211Z,4.60
2018-06-07T13:21:52.275Z,4.10
2018-06-07T13:24:21.304Z,4.30
2018-06-07T13:26:50.282Z,3.80
2018-06-07T13:29:19.267Z,3.53
2018-06-07T13:31:48.196Z,3.70
2018-06-07T13:34:17.209Z,4.10
2018-06-07T13:36:46.157Z,3.73
2018-06-07T13:39:15.145Z,3.73
2018-06-07T13:41:44.068Z,3.53
2018-06-07T13:44:13.054Z,3.63
2018-06-07T13:46:42.017Z,3.00
2018-06-07T13:49:11.378Z,3.50
2018-06-07T13:51:40.339Z,3.37
2018-06-07T13:54:09.278Z,3.10
2018-06-07T13:56:38.663Z,3.10
2018-06-07T13:59:07.698Z,2.90
2018-06-07T14:01:36.779Z,3.47
2018-06-07T14:04:05.805Z,3.10
2018-06-07T14:06:34.762Z,3.23
2018-06-07T14:09:05.614Z,3.70
2018-06-07T14:11:34.563Z,3.10
2018-06-07T14:14:03.566Z,3.67
2018-06-07T14:16:32.519Z,3.20
2018-06-07T14:19:01.527Z,3.00
2018-06-07T14:21:30.474Z,3.07
2018-06-07T14:23:59.486Z,3.30
2018-06-07T14:26:28.442Z,3.70
2018-06-07T14:28:57.492Z,3.40
2018-06-07T14:31:26.394Z,3.50
2018-06-07T14:33:55.433Z,2.90
2018-06-07T14:36:24.442Z,3.40
2018-06-07T14:38:53.383Z,3.07
2018-06-07T14:41:22.439Z,3.20
2018-06-07T14:43:51.378Z,2.97
2018-06-07T14:46:20.595Z,3.20
2018-06-07T14:48:49.566Z,3.37
2018-06-07T14:51:18.542Z,3.33
2018-06-07T14:53:47.923Z,3.27
2018-06-07T14:56:16.971Z,3.60
2018-06-07T14:58:45.946Z,3.63
2018-06-07T15:01:14.891Z,4.03
2018-06-07T15:03:43.896Z,3.90
2018-06-07T15:06:12.842Z,3.37
2018-06-07T15:08:41.970Z,3.90
2018-06-07T15:11:10.962Z,3.97
2018-06-07T15:13:39.943Z,4.23
2018-06-07T15:16:08.927Z,4.50
2018-06-07T15:18:37.919Z,4.30
2018-06-07T15:21:06.919Z,4.87
2018-06-07T15:23:35.910Z,4.50
2018-06-07T15:26:05.022Z,4.70
2018-06-07T15:28:33.966Z,4.70
2018-06-07T15:31:02.931Z,5.03
2018-06-07T15:33:31.880Z,4.57
2018-06-07T15:36:00.830Z,4.43
2018-06-07T15:38:29.991Z,4.40
2018-06-07T15:40:58.939Z,4.93
2018-06-07T15:43:27.858Z,4.70
2018-06-07T15:45:56.854Z,5.00
2018-06-07T15:48:25.845Z,5.10
2018-06-07T15:50:54.792Z,4.73
2018-06-07T15:53:23.778Z,5.23
2018-06-07T15:55:52.795Z,4.63
2018-06-07T15:58:21.949Z,4.73
2018-06-07T16:00:51.082Z,5.00
2018-06-07T16:03:20.103Z,4.93
2018-06-07T16:05:49.048Z,4.67
2018-06-07T16:08:18.186Z,5.20
2018-06-07T16:10:47.184Z,5.00
2018-06-07T16:13:16.123Z,5.33
2018-06-07T16:15:45.112Z,5.40
2018-06-07T16:18:14.048Z,5.00
2018-06-07T16:20:42.996Z,4.77
2018-06-07T16:23:11.958Z,4.97
2018-06-07T16:25:40.908Z,4.67
2018-06-07T16:28:09.868Z,4.60
2018-06-07T16:30:38.863Z,4.67
2018-06-07T16:33:07.867Z,4.80
2018-06-07T16:35:37.593Z,4.50
2018-06-07T16:38:06.554Z,4.50
2018-06-07T16:40:35.517Z,5.03
2018-06-07T16:43:04.465Z,5.20
2018-06-07T16:45:34.723Z,5.73
2018-06-07T16:48:03.863Z,6.00
2018-06-07T16:50:32.921Z,5.67
2018-06-07T16:53:01.862Z,6.60
2018-06-07T16:55:30.902Z,6.50
2018-06-07T16:57:59.838Z,6.73
2018-06-07T17:00:28.999Z,6.67
2018-06-07T17:02:58.989Z,6.67
2018-06-07T17:05:27.946Z,6.80
2018-06-07T17:07:56.930Z,7.07
2018-06-07T17:10:26.051Z,6.67
2018-06-07T17:12:55.005Z,7.57
2018-06-07T17:15:23.961Z,7.57
2018-06-07T17:17:52.914Z,7.57
2018-06-07T17:20:22.056Z,7.13
2018-06-07T17:22:51.072Z,7.30
2018-06-07T17:25:19.970Z,7.47
2018-06-07T17:27:48.954Z,7.33
2018-06-07T17:30:17.987Z,9.13
2018-06-07T17:32:46.989Z,8.23
2018-06-07T17:35:15.938Z,9.40
2018-06-07T17:37:44.946Z,8.57
2018-06-07T17:40:13.935Z,7.33
2018-06-07T17:42:42.940Z,8.10
2018-06-07T17:45:11.935Z,8.27
2018-06-07T17:47:40.872Z,8.60
2018-06-07T17:50:09.823Z,8.00
2018-06-07T17:52:38.799Z,8.73
2018-06-07T17:55:07.767Z,8.20
2018-06-07T17:57:36.744Z,8.33
2018-06-07T18:00:05.766Z,8.57
2018-06-07T18:02:34.749Z,8.30
2018-06-07T18:05:03.731Z,7.97
2018-06-07T18:07:32.704Z,8.00
2018-06-07T18:10:01.700Z,8.50
2018-06-07T18:12:30.710Z,8.57
2018-06-07T18:14:59.649Z,8.70
2018-06-07T18:17:28.760Z,9.30
2018-06-07T18:19:57.825Z,8.57
2018-06-07T18:22:28.069Z,7.67
2018-06-07T18:24:57.366Z,8.53
2018-06-07T18:27:26.451Z,8.73
2018-06-07T18:29:55.447Z,8.23
2018-06-07T18:32:24.605Z,9.13
2018-06-07T18:34:53.599Z,8.43
2018-06-07T18:37:22.580Z,9.33
2018-06-07T18:39:51.629Z,8.00
2018-06-07T18:42:20.639Z,8.80
2018-06-07T18:44:49.806Z,9.17
2018-06-07T18:47:18.781Z,9.37
2018-06-07T18:49:47.790Z,12.60
2018-06-07T18:52:16.766Z,10.63
2018-06-07T18:54:45.799Z,10.03
2018-06-07T18:57:14.930Z,9.53
2018-06-07T18:59:43.980Z,9.77
2018-06-07T19:02:12.962Z,10.57
2018-06-07T19:04:42.055Z,10.60
2018-06-07T19:07:16.435Z,10.70
2018-06-07T19:09:50.710Z,11.40
2018-06-07T19:12:21.235Z,10.47
2018-06-07T19:14:56.023Z,10.13
2018-06-07T19:17:25.842Z,10.03
2018-06-07T19:20:00.322Z,10.03
2018-06-07T19:22:32.312Z,11.60
2018-06-07T19:25:06.703Z,10.20
2018-06-07T19:27:35.710Z,10.70
2018-06-07T19:30:05.124Z,10.50
2018-06-07T19:32:39.555Z,10.20
2018-06-07T19:35:09.881Z,10.90
2018-06-07T19:37:38.878Z,10.30
2018-06-07T19:42:18.422Z,11.03
2018-06-07T19:44:47.679Z,9.70
2018-06-07T19:47:16.738Z,9.37
2018-06-07T19:49:46.510Z,9.87
2018-06-07T19:52:15.499Z,9.07
2018-06-07T19:54:44.491Z,9.43
2018-06-07T19:57:13.478Z,9.53
2018-06-07T19:59:42.646Z,9.57
2018-06-07T20:02:11.670Z,9.60
2018-06-07T20:04:40.662Z,8.90
2018-06-07T20:07:09.687Z,9.33
2018-06-07T20:09:39.481Z,8.73
2018-06-07T20:12:08.694Z,9.43
2018-06-07T20:14:38.834Z,10.33
2018-06-07T20:17:07.970Z,10.03
2018-06-07T20:19:37.806Z,10.10
2018-06-07T20:22:08.448Z,10.87
2018-06-07T20:24:37.448Z,10.13
2018-06-07T20:27:06.527Z,11.10
2018-06-07T20:29:35.502Z,10.70
2018-06-07T20:32:04.530Z,10.97
2018-06-07T20:34:33.506Z,12.00
2018-06-07T20:37:03.284Z,10.93
2018-06-07T20:39:32.275Z,11.30
2018-06-07T20:42:01.598Z,11.60
2018-06-07T20:44:30.692Z,11.00
2018-06-07T20:46:59.860Z,11.07
2018-06-07T20:49:28.878Z,12.13
2018-06-07T20:51:57.930Z,10.50
2018-06-07T20:54:27.211Z,11.13
2018-06-07T20:56:57.562Z,10.60
2018-06-07T20:59:27.058Z,10.60
2018-06-07T21:01:56.256Z,10.53
2018-06-07T21:04:25.418Z,10.30
2018-06-07T21:06:54.398Z,9.60
2018-06-07T21:09:23.690Z,10.50
2018-06-07T21:11:53.770Z,10.17
2018-06-07T21:14:23.165Z,9.80
2018-06-07T21:16:52.181Z,10.77
2018-06-07T21:19:21.287Z,10.33
2018-06-07T21:21:50.271Z,10.00
2018-06-07T21:24:19.209Z,9.80
2018-06-07T21:26:48.215Z,10.30
2018-06-07T21:29:17.215Z,9.17
2018-06-07T21:31:47.574Z,9.90
2018-06-07T21:34:16.610Z,10.27
2018-06-07T21:36:45.640Z,10.33
2018-06-07T21:39:14.627Z,10.50
2018-06-07T21:41:43.780Z,9.70
2018-06-07T21:44:12.759Z,9.77
2018-06-07T21:46:41.817Z,8.87
2018-06-07T21:49:10.806Z,9.30
2018-06-07T21:51:39.747Z,9.07
2018-06-07T21:54:09.044Z,9.77
2018-06-07T21:56:38.095Z,10.20
2018-06-07T21:59:07.102Z,9.97
2018-06-07T22:01:36.050Z,9.30
2018-06-07T22:04:05.018Z,9.70
2018-06-07T22:06:34.043Z,9.30
2018-06-07T22:09:03.203Z,9.53
2018-06-07T22:11:32.177Z,9.53
2018-06-07T22:14:01.189Z,8.87
2018-06-07T22:16:30.098Z,8.77
2018-06-07T22:18:59.118Z,10.43
2018-06-07T22:21:28.074Z,10.27
2018-06-07T22:23:57.030Z,10.17
2018-06-07T22:26:26.036Z,9.63
2018-06-07T22:28:54.995Z,9.50
2018-06-07T22:31:23.989Z,10.30
2018-06-07T22:33:52.991Z,9.97
2018-06-07T22:36:21.958Z,9.57
2018-06-07T22:38:50.924Z,10.13
2018-06-07T22:41:19.911Z,9.47
2018-06-07T22:43:48.860Z,9.00
2018-06-07T22:46:17.847Z,9.60
2018-06-07T22:48:46.972Z,9.87
2018-06-07T22:51:15.910Z,9.77
2018-06-07T22:53:44.891Z,10.10
2018-06-07T22:56:13.874Z,9.93
2018-06-07T22:58:42.831Z,10.10
2018-06-07T23:01:11.798Z,10.03
2018-06-07T23:03:40.805Z,10.77
2018-06-07T23:06:09.811Z,9.67
2018-06-07T23:08:39.034Z,9.93
2018-06-07T23:11:08.011Z,9.67
2018-06-07T23:13:37.010Z,10.00
2018-06-07T23:16:05.962Z,10.90
2018-06-07T23:18:34.921Z,10.50
2018-06-07T23:21:04.048Z,10.70
2018-06-07T23:23:33.094Z,11.27
2018-06-07T23:26:02.165Z,10.40
2018-06-07T23:28:31.083Z,10.50
2018-06-07T23:31:00.135Z,10.83
2018-06-07T23:33:29.086Z,10.17
2018-06-07T23:35:58.079Z,10.67
2018-06-07T23:38:27.094Z,11.43
2018-06-07T23:40:56.039Z,11.97
2018-06-07T23:43:25.027Z,11.87
2018-06-07T23:45:53.990Z,12.40
2018-06-07T23:48:22.998Z,12.20
2018-06-07T23:50:51.946Z,12.50
2018-06-07T23:53:20.895Z,12.47
2018-06-07T23:55:50.009Z,11.57
2018-06-07T23:58:18.963Z,10.90
